Time;durP1;ratioP1;P1;durP2;ratioP2;P2;SDS_P1;SDS_P2;PMS_P1;PMS_P2;Temp;Humidity;BMP_temperature;BMP_pressure;BME280_temperature;BME280_humidity;BME280_pressure;Samples;Min_cycle;Max_cycle;Signal;HPM_P1;HPM_P2
2023/04/03 00:02:11;;;;;;;11.20;5.90;;;;;;;;;;749728;182;631659;-79
2023/04/03 00:04:37;;;;;;;6.10;4.43;;;;;;;;;;746824;187;634894;-78
2023/04/03 00:07:03;;;;;;;10.20;6.40;;;;;;;;;;753529;183;643999;-77
2023/04/03 00:09:29;;;;;;;6.50;5.10;;;;;;;;;;750106;182;661804;-79
2023/04/03 00:11:55;;;;;;;5.67;4.63;;;;;;;;;;763416;183;627297;-78
2023/04/03 00:14:20;;;;;;;6.03;3.63;;;;;;;;;;773739;179;630602;-78
2023/04/03 00:16:46;;;;;;;4.40;3.00;;;;;;;;;;771337;180;620027;-77
2023/04/03 00:19:12;;;;;;;8.73;5.47;;;;;;;;;;765876;181;629189;-78
2023/04/03 00:21:38;;;;;;;7.30;5.53;;;;;;;;;;752256;182;626320;-76
2023/04/03 00:24:04;;;;;;;6.27;4.33;;;;;;;;;;763486;182;636364;-79
2023/04/03 00:26:30;;;;;;;7.15;5.15;;;;;;;;;;762036;181;624817;-79
2023/04/03 00:28:56;;;;;;;11.43;4.37;;;;;;;;;;754576;184;623545;-78
2023/04/03 00:31:22;;;;;;;7.10;5.70;;;;;;;;;;756007;181;629441;-78
2023/04/03 00:33:48;;;;;;;9.60;5.37;;;;;;;;;;766321;181;629451;-77
2023/04/03 00:36:13;;;;;;;7.83;5.40;;;;;;;;;;759978;184;637590;-77
2023/04/03 00:38:39;;;;;;;4.50;3.40;;;;;;;;;;752208;183;626928;-78
2023/04/03 00:41:05;;;;;;;5.70;4.00;;;;;;;;;;765116;181;643079;-76
2023/04/03 00:43:31;;;;;;;6.83;4.30;;;;;;;;;;765442;182;635395;-79
2023/04/03 00:45:57;;;;;;;7.63;5.27;;;;;;;;;;772069;181;633241;-79
2023/04/03 00:48:23;;;;;;;7.30;4.27;;;;;;;;;;764319;182;645855;-77
2023/04/03 00:50:48;;;;;;;5.40;3.23;;;;;;;;;;756408;184;624474;-79
2023/04/03 00:53:14;;;;;;;7.47;3.37;;;;;;;;;;762017;181;628066;-78
2023/04/03 00:55:40;;;;;;;7.97;5.63;;;;;;;;;;763359;182;647377;-78
2023/04/03 00:58:07;;;;;;;6.50;5.20;;;;;;;;;;753065;185;638503;-76
2023/04/03 01:00:32;;;;;;;11.13;5.53;;;;;;;;;;764950;182;624880;-77
2023/04/03 01:02:58;;;;;;;14.43;6.77;;;;;;;;;;763300;182;632715;-79
2023/04/03 01:05:24;;;;;;;7.50;5.67;;;;;;;;;;764338;182;621052;-79
2023/04/03 01:07:50;;;;;;;11.37;7.77;;;;;;;;;;771711;179;623944;-79
2023/04/03 01:10:15;;;;;;;6.93;4.90;;;;;;;;;;752298;182;632980;-77
2023/04/03 01:12:41;;;;;;;8.00;6.13;;;;;;;;;;758041;185;624580;-78
2023/04/03 01:15:08;;;;;;;12.87;9.00;;;;;;;;;;763448;182;631825;-78
2023/04/03 01:17:36;;;;;;;10.90;7.70;;;;;;;;;;757204;182;629237;-78
2023/04/03 01:20:20;;;;;;;12.53;8.13;;;;;;;;;;750667;183;628311;-78
2023/04/03 01:22:51;;;;;;;16.43;8.23;;;;;;;;;;758316;183;625102;-78
2023/04/03 01:25:17;;;;;;;14.10;8.40;;;;;;;;;;765181;181;628737;-78
2023/04/03 01:27:43;;;;;;;7.60;4.67;;;;;;;;;;739321;187;643879;-79
2023/04/03 01:30:09;;;;;;;10.63;7.97;;;;;;;;;;751160;184;638538;-79
2023/04/03 01:32:35;;;;;;;9.77;4.27;;;;;;;;;;753020;184;626082;-79
2023/04/03 01:35:01;;;;;;;8.77;6.30;;;;;;;;;;752908;183;624493;-78
2023/04/03 01:37:27;;;;;;;10.37;7.40;;;;;;;;;;758513;183;614389;-78
2023/04/03 01:39:52;;;;;;;9.65;5.93;;;;;;;;;;753751;183;752112;-78
2023/04/03 01:42:18;;;;;;;16.43;5.00;;;;;;;;;;754677;182;624338;-78
2023/04/03 01:44:45;;;;;;;5.90;5.03;;;;;;;;;;761676;182;632577;-79
2023/04/03 01:47:10;;;;;;;11.57;6.70;;;;;;;;;;765105;182;633774;-78
2023/04/03 01:49:36;;;;;;;13.70;8.27;;;;;;;;;;762035;182;634086;-78
2023/04/03 01:52:02;;;;;;;10.20;6.97;;;;;;;;;;762612;183;613940;-79
2023/04/03 01:54:27;;;;;;;12.30;8.53;;;;;;;;;;756506;182;638767;-79
2023/04/03 01:56:53;;;;;;;6.80;4.90;;;;;;;;;;761271;182;632803;-78
2023/04/03 01:59:19;;;;;;;7.60;5.23;;;;;;;;;;760367;184;663623;-78
2023/04/03 02:01:45;;;;;;;9.37;6.17;;;;;;;;;;764025;182;642325;-79
2023/04/03 02:04:11;;;;;;;9.47;6.20;;;;;;;;;;765172;183;633165;-78
2023/04/03 02:06:37;;;;;;;13.30;7.77;;;;;;;;;;767199;180;629827;-79
2023/04/03 02:09:03;;;;;;;12.00;7.57;;;;;;;;;;766716;181;626942;-77
2023/04/03 02:11:28;;;;;;;8.93;5.67;;;;;;;;;;764973;182;619015;-79
2023/04/03 02:13:54;;;;;;;11.23;6.50;;;;;;;;;;766182;182;644400;-78
2023/04/03 02:16:20;;;;;;;5.27;4.33;;;;;;;;;;763181;182;630706;-78
2023/04/03 02:18:46;;;;;;;10.20;6.27;;;;;;;;;;768642;182;623876;-77
2023/04/03 02:21:12;;;;;;;6.47;5.50;;;;;;;;;;758065;182;628586;-77
2023/04/03 02:23:38;;;;;;;6.97;4.63;;;;;;;;;;759789;181;623522;-78
2023/04/03 02:26:03;;;;;;;6.83;4.53;;;;;;;;;;756637;182;636397;-78
2023/04/03 02:28:29;;;;;;;8.40;5.80;;;;;;;;;;747188;185;635283;-77
2023/04/03 02:30:55;;;;;;;7.67;6.87;;;;;;;;;;749064;185;627205;-78
2023/04/03 02:33:21;;;;;;;7.10;5.70;;;;;;;;;;749828;185;619381;-77
2023/04/03 02:35:52;;;;;;;11.93;6.30;;;;;;;;;;759501;182;639432;-76
2023/04/03 02:38:13;;;;;;;10.40;7.00;;;;;;;;;;756151;184;631043;-78
2023/04/03 02:40:39;;;;;;;8.33;5.60;;;;;;;;;;749463;188;645862;-77
2023/04/03 02:43:04;;;;;;;8.50;5.63;;;;;;;;;;757294;183;633522;-78
2023/04/03 02:45:30;;;;;;;4.07;3.67;;;;;;;;;;763037;183;625552;-77
2023/04/03 02:47:56;;;;;;;11.73;6.93;;;;;;;;;;763906;182;621783;-79
2023/04/03 02:50:22;;;;;;;10.40;4.70;;;;;;;;;;761895;181;623348;-78
2023/04/03 02:52:48;;;;;;;8.50;6.83;;;;;;;;;;762028;182;625945;-79
2023/04/03 02:55:14;;;;;;;10.17;7.27;;;;;;;;;;751807;183;628644;-79
2023/04/03 02:57:40;;;;;;;7.67;6.20;;;;;;;;;;761042;183;634832;-78
2023/04/03 03:00:06;;;;;;;6.70;4.53;;;;;;;;;;760341;182;657946;-79
2023/04/03 03:02:32;;;;;;;8.03;5.60;;;;;;;;;;755259;182;638465;-77
2023/04/03 03:04:58;;;;;;;9.30;6.50;;;;;;;;;;761070;182;646328;-78
2023/04/03 03:07:24;;;;;;;12.40;7.53;;;;;;;;;;765377;181;620966;-77
2023/04/03 03:09:49;;;;;;;12.00;7.70;;;;;;;;;;763907;183;616012;-79
2023/04/03 03:12:15;;;;;;;9.73;5.63;;;;;;;;;;766784;182;633403;-79
2023/04/03 03:14:42;;;;;;;12.23;7.83;;;;;;;;;;759703;181;634316;-79
2023/04/03 03:17:07;;;;;;;12.33;7.60;;;;;;;;;;756595;182;653866;-79
2023/04/03 03:19:33;;;;;;;7.72;5.93;;;;;;;;;;762709;180;624931;-79
2023/04/03 03:21:59;;;;;;;10.00;7.00;;;;;;;;;;763353;183;642764;-78
2023/04/03 03:24:25;;;;;;;14.83;9.70;;;;;;;;;;759002;182;628475;-78
2023/04/03 03:26:51;;;;;;;10.83;6.40;;;;;;;;;;759400;182;637161;-79
2023/04/03 03:29:17;;;;;;;13.27;7.03;;;;;;;;;;767911;181;631353;-80
2023/04/03 03:31:42;;;;;;;11.50;5.60;;;;;;;;;;766017;181;639167;-78
2023/04/03 03:34:08;;;;;;;10.40;8.13;;;;;;;;;;761097;181;637835;-78
2023/04/03 03:36:35;;;;;;;13.20;7.70;;;;;;;;;;768126;182;629219;-77
2023/04/03 03:39:00;;;;;;;7.07;5.82;;;;;;;;;;757588;181;628600;-79
2023/04/03 03:41:26;;;;;;;7.60;5.57;;;;;;;;;;759118;182;625057;-80
2023/04/03 03:43:52;;;;;;;9.70;6.47;;;;;;;;;;753001;184;650210;-78
2023/04/03 03:46:18;;;;;;;9.60;6.60;;;;;;;;;;750174;185;740529;-78
2023/04/03 03:48:44;;;;;;;9.57;6.37;;;;;;;;;;754916;184;721563;-78
2023/04/03 03:51:11;;;;;;;14.10;9.37;;;;;;;;;;743490;182;2084420;-78
2023/04/03 03:53:37;;;;;;;8.40;7.33;;;;;;;;;;760996;184;636810;-79
2023/04/03 03:56:03;;;;;;;12.93;7.93;;;;;;;;;;759216;183;730644;-78
2023/04/03 03:58:28;;;;;;;12.10;7.13;;;;;;;;;;768984;179;624891;-79
2023/04/03 04:00:54;;;;;;;12.27;5.97;;;;;;;;;;765576;182;633817;-79
2023/04/03 04:03:20;;;;;;;8.27;7.00;;;;;;;;;;761585;184;629345;-80
2023/04/03 04:05:46;;;;;;;12.87;8.40;;;;;;;;;;757136;183;622873;-77
2023/04/03 04:08:12;;;;;;;6.60;4.53;;;;;;;;;;761849;185;657421;-78
2023/04/03 04:10:38;;;;;;;10.03;6.00;;;;;;;;;;760884;185;626799;-78
2023/04/03 04:13:04;;;;;;;8.03;6.70;;;;;;;;;;750804;184;633567;-79
2023/04/03 04:15:30;;;;;;;7.93;5.90;;;;;;;;;;755281;182;622130;-78
2023/04/03 04:17:56;;;;;;;12.03;7.83;;;;;;;;;;762431;182;666858;-80
2023/04/03 04:20:21;;;;;;;13.63;7.67;;;;;;;;;;761680;182;621439;-77
2023/04/03 04:22:47;;;;;;;11.83;8.90;;;;;;;;;;749264;184;629422;-78
2023/04/03 04:25:13;;;;;;;10.70;4.67;;;;;;;;;;750345;187;636409;-79
2023/04/03 04:27:39;;;;;;;13.07;5.50;;;;;;;;;;753241;183;640369;-77
2023/04/03 04:30:06;;;;;;;11.10;4.40;;;;;;;;;;743411;184;623365;-78
2023/04/03 04:32:31;;;;;;;8.73;6.07;;;;;;;;;;761390;185;638481;-77
2023/04/03 04:34:57;;;;;;;13.50;6.00;;;;;;;;;;763023;182;630831;-79
2023/04/03 04:37:23;;;;;;;11.83;6.77;;;;;;;;;;765667;181;616383;-76
2023/04/03 04:39:48;;;;;;;7.33;4.70;;;;;;;;;;763364;183;618045;-79
2023/04/03 04:42:14;;;;;;;13.43;6.27;;;;;;;;;;757101;183;631407;-80
2023/04/03 04:44:40;;;;;;;8.20;5.20;;;;;;;;;;754175;184;637512;-79
2023/04/03 04:47:06;;;;;;;8.10;4.73;;;;;;;;;;758691;182;629703;-80
2023/04/03 04:49:32;;;;;;;9.13;6.27;;;;;;;;;;751955;185;629323;-78
2023/04/03 04:51:58;;;;;;;8.77;5.80;;;;;;;;;;758436;184;626634;-79
2023/04/03 04:54:24;;;;;;;10.90;5.97;;;;;;;;;;758539;182;630725;-79
2023/04/03 04:56:49;;;;;;;9.27;5.63;;;;;;;;;;761567;182;655091;-78
2023/04/03 04:59:15;;;;;;;17.30;7.07;;;;;;;;;;759315;181;627093;-78
2023/04/03 05:01:41;;;;;;;5.80;5.10;;;;;;;;;;758096;184;636297;-79
2023/04/03 05:04:07;;;;;;;11.27;6.30;;;;;;;;;;763548;182;625446;-80
2023/04/03 05:06:34;;;;;;;7.00;4.00;;;;;;;;;;762223;183;629607;-77
2023/04/03 05:08:59;;;;;;;8.70;6.40;;;;;;;;;;763403;181;633230;-78
2023/04/03 05:11:25;;;;;;;6.20;4.30;;;;;;;;;;759799;183;743915;-79
2023/04/03 05:13:50;;;;;;;10.40;5.97;;;;;;;;;;766098;181;635794;-77
2023/04/03 05:16:16;;;;;;;9.13;6.60;;;;;;;;;;757249;181;706780;-77
2023/04/03 05:18:42;;;;;;;9.73;4.70;;;;;;;;;;756056;182;646094;-79
2023/04/03 05:21:08;;;;;;;8.20;6.20;;;;;;;;;;763320;180;619506;-77
2023/04/03 05:23:34;;;;;;;11.53;7.63;;;;;;;;;;763003;181;679319;-76
2023/04/03 05:26:00;;;;;;;13.23;7.37;;;;;;;;;;766202;182;688021;-77
2023/04/03 05:28:25;;;;;;;9.60;5.90;;;;;;;;;;768960;180;620951;-78
2023/04/03 05:30:55;;;;;;;13.23;7.70;;;;;;;;;;762172;184;620517;-78
2023/04/03 05:33:20;;;;;;;11.43;6.13;;;;;;;;;;768934;181;648714;-79
2023/04/03 05:35:46;;;;;;;13.27;7.23;;;;;;;;;;766019;181;645961;-79
2023/04/03 05:38:12;;;;;;;8.13;6.03;;;;;;;;;;767241;183;634805;-79
2023/04/03 05:40:37;;;;;;;7.70;5.47;;;;;;;;;;765564;181;641662;-79
2023/04/03 05:43:03;;;;;;;7.23;4.43;;;;;;;;;;750773;185;638684;-78
2023/04/03 05:45:29;;;;;;;9.40;5.90;;;;;;;;;;761468;183;618139;-77
2023/04/03 05:47:55;;;;;;;10.93;6.67;;;;;;;;;;768880;182;620274;-77
2023/04/03 05:50:21;;;;;;;8.73;7.07;;;;;;;;;;758709;182;630087;-78
2023/04/03 05:52:47;;;;;;;8.30;4.67;;;;;;;;;;771058;181;628122;-79
2023/04/03 05:55:12;;;;;;;12.83;8.27;;;;;;;;;;760431;181;731563;-77
2023/04/03 05:57:38;;;;;;;12.93;6.97;;;;;;;;;;763422;180;769974;-76
2023/04/03 06:00:06;;;;;;;9.90;5.20;;;;;;;;;;774691;180;623997;-77
2023/04/03 06:02:31;;;;;;;9.77;5.63;;;;;;;;;;757225;185;615441;-77
2023/04/03 06:04:56;;;;;;;7.37;5.60;;;;;;;;;;758463;185;623730;-78
2023/04/03 06:07:22;;;;;;;12.83;8.80;;;;;;;;;;754189;184;633549;-79
2023/04/03 06:09:48;;;;;;;10.33;6.10;;;;;;;;;;769469;181;621339;-77
2023/04/03 06:12:14;;;;;;;14.80;8.73;;;;;;;;;;753651;183;628272;-76
2023/04/03 06:14:40;;;;;;;9.53;4.83;;;;;;;;;;758864;184;630738;-77
2023/04/03 06:17:06;;;;;;;12.80;8.93;;;;;;;;;;766613;181;754493;-78
2023/04/03 06:19:31;;;;;;;8.57;6.60;;;;;;;;;;774094;180;635604;-79
2023/04/03 06:21:57;;;;;;;10.63;7.17;;;;;;;;;;756163;184;620785;-77
2023/04/03 06:24:24;;;;;;;19.00;11.50;;;;;;;;;;763070;184;636959;-80
2023/04/03 06:26:51;;;;;;;17.00;11.47;;;;;;;;;;771130;182;627016;-79
2023/04/03 06:29:15;;;;;;;17.30;6.60;;;;;;;;;;748226;186;631380;-79
2023/04/03 06:31:41;;;;;;;11.27;9.03;;;;;;;;;;761127;181;638660;-78
2023/04/03 06:34:07;;;;;;;7.50;4.97;;;;;;;;;;766563;181;632234;-77
2023/04/03 06:36:32;;;;;;;11.60;5.57;;;;;;;;;;768383;181;631752;-76
2023/04/03 06:38:58;;;;;;;8.73;6.40;;;;;;;;;;766024;183;625878;-78
2023/04/03 06:41:26;;;;;;;14.43;7.00;;;;;;;;;;766060;183;631902;-79
2023/04/03 06:43:50;;;;;;;8.47;5.83;;;;;;;;;;764801;181;634490;-78
2023/04/03 06:46:16;;;;;;;10.10;7.10;;;;;;;;;;767054;182;631361;-77
2023/04/03 06:48:42;;;;;;;10.30;6.50;;;;;;;;;;762871;181;710853;-77
2023/04/03 06:51:07;;;;;;;9.37;6.27;;;;;;;;;;760737;184;633944;-78
2023/04/03 06:53:33;;;;;;;14.50;9.10;;;;;;;;;;751747;184;635816;-76
2023/04/03 06:55:59;;;;;;;13.27;8.03;;;;;;;;;;752523;182;632744;-78
2023/04/03 06:58:25;;;;;;;15.20;7.53;;;;;;;;;;770222;182;632034;-76
2023/04/03 07:00:51;;;;;;;17.87;6.30;;;;;;;;;;760886;182;631472;-77
2023/04/03 07:03:17;;;;;;;10.73;8.53;;;;;;;;;;761092;183;632604;-77
2023/04/03 07:05:44;;;;;;;9.33;6.43;;;;;;;;;;766756;182;625107;-78
2023/04/03 07:08:08;;;;;;;16.60;7.77;;;;;;;;;;760058;181;626737;-77
2023/04/03 07:10:34;;;;;;;8.40;6.00;;;;;;;;;;759096;184;644946;-78
2023/04/03 07:13:01;;;;;;;10.63;7.77;;;;;;;;;;753138;185;620096;-77
2023/04/03 07:15:26;;;;;;;12.83;9.40;;;;;;;;;;762844;184;618726;-78
2023/04/03 07:17:52;;;;;;;9.53;8.30;;;;;;;;;;753783;184;618329;-78
2023/04/03 07:20:18;;;;;;;7.07;5.37;;;;;;;;;;752511;184;637093;-78
2023/04/03 07:22:44;;;;;;;18.03;5.93;;;;;;;;;;761401;186;630343;-77
2023/04/03 07:25:10;;;;;;;8.90;5.60;;;;;;;;;;747129;188;634442;-78
2023/04/03 07:27:35;;;;;;;8.43;7.53;;;;;;;;;;754707;185;655200;-80
2023/04/03 07:30:01;;;;;;;11.90;8.37;;;;;;;;;;751118;188;617135;-78
2023/04/03 07:32:28;;;;;;;12.97;8.20;;;;;;;;;;764505;182;630228;-79
2023/04/03 07:34:57;;;;;;;6.93;5.90;;;;;;;;;;770399;180;629168;-78
2023/04/03 07:37:23;;;;;;;10.40;7.27;;;;;;;;;;766674;182;628513;-79
2023/04/03 07:39:49;;;;;;;5.80;4.80;;;;;;;;;;771711;183;627461;-79
2023/04/03 07:42:15;;;;;;;6.77;5.10;;;;;;;;;;761028;183;631918;-79
2023/04/03 07:44:41;;;;;;;9.40;5.90;;;;;;;;;;749417;186;630634;-78
2023/04/03 07:47:07;;;;;;;11.70;6.73;;;;;;;;;;757581;184;637108;-77
2023/04/03 07:49:32;;;;;;;14.67;7.23;;;;;;;;;;754829;184;643922;-78
2023/04/03 07:51:58;;;;;;;8.80;6.40;;;;;;;;;;771053;182;625692;-78
2023/04/03 07:54:24;;;;;;;12.77;8.10;;;;;;;;;;774619;180;609214;-79
2023/04/03 07:56:50;;;;;;;14.30;7.80;;;;;;;;;;771185;179;623083;-79
2023/04/03 07:59:16;;;;;;;9.17;6.30;;;;;;;;;;764235;182;668103;-79
2023/04/03 08:01:42;;;;;;;8.23;6.10;;;;;;;;;;768190;182;618163;-79
2023/04/03 08:04:07;;;;;;;12.13;7.10;;;;;;;;;;766953;181;621185;-78
2023/04/03 08:06:36;;;;;;;10.03;7.90;;;;;;;;;;761327;183;634830;-78
2023/04/03 08:08:59;;;;;;;9.87;7.50;;;;;;;;;;763398;181;681334;-78
2023/04/03 08:11:26;;;;;;;10.87;8.30;;;;;;;;;;767521;181;651522;-78
2023/04/03 08:13:51;;;;;;;11.50;8.60;;;;;;;;;;766602;182;650813;-78
2023/04/03 08:16:17;;;;;;;5.60;4.67;;;;;;;;;;767237;181;627769;-78
2023/04/03 08:18:43;;;;;;;10.63;6.10;;;;;;;;;;760073;180;627661;-77
2023/04/03 08:21:08;;;;;;;8.43;6.57;;;;;;;;;;759235;182;676470;-79
2023/04/03 08:23:34;;;;;;;8.90;6.50;;;;;;;;;;763403;182;664177;-77
2023/04/03 08:26:00;;;;;;;5.70;4.20;;;;;;;;;;772940;181;625085;-78
2023/04/03 08:28:26;;;;;;;8.97;5.20;;;;;;;;;;761484;182;623486;-78
2023/04/03 08:30:52;;;;;;;8.67;6.13;;;;;;;;;;762060;182;640224;-78
2023/04/03 08:33:18;;;;;;;9.60;6.50;;;;;;;;;;764537;183;628252;-78
2023/04/03 08:35:44;;;;;;;7.20;4.90;;;;;;;;;;767088;181;637093;-78
2023/04/03 08:38:09;;;;;;;12.80;8.50;;;;;;;;;;765292;181;629524;-78
2023/04/03 08:40:35;;;;;;;9.47;6.67;;;;;;;;;;761390;184;637947;-78
2023/04/03 08:43:17;;;;;;;9.27;6.80;;;;;;;;;;762791;184;614469;-78
2023/04/03 08:45:46;;;;;;;11.43;7.40;;;;;;;;;;764987;184;636613;-77
2023/04/03 08:48:14;;;;;;;7.40;6.20;;;;;;;;;;753182;183;648529;-77
2023/04/03 08:50:40;;;;;;;11.20;9.10;;;;;;;;;;748376;185;624695;-77
2023/04/03 08:53:06;;;;;;;11.60;7.20;;;;;;;;;;756553;183;631806;-77
2023/04/03 08:55:33;;;;;;;7.00;5.10;;;;;;;;;;772649;183;639844;-78
2023/04/03 08:57:59;;;;;;;10.93;7.80;;;;;;;;;;761096;182;637771;-79
2023/04/03 09:00:24;;;;;;;12.00;8.60;;;;;;;;;;769158;182;637352;-79
2023/04/03 09:02:50;;;;;;;11.83;8.10;;;;;;;;;;769864;182;625703;-78
2023/04/03 09:05:17;;;;;;;8.77;6.40;;;;;;;;;;766146;182;627167;-79
2023/04/03 09:07:43;;;;;;;8.17;5.30;;;;;;;;;;758662;181;630456;-78
2023/04/03 09:10:09;;;;;;;8.37;6.10;;;;;;;;;;757468;185;661977;-79
2023/04/03 09:12:35;;;;;;;9.47;5.67;;;;;;;;;;760667;182;628579;-79
2023/04/03 09:15:01;;;;;;;15.30;7.27;;;;;;;;;;758719;185;669188;-78
2023/04/03 09:17:37;;;;;;;5.00;4.00;;;;;;;;;;764084;181;629869;-80
2023/04/03 09:20:03;;;;;;;6.10;4.67;;;;;;;;;;755803;182;621386;-78
2023/04/03 09:22:29;;;;;;;7.37;5.13;;;;;;;;;;747569;185;627684;-78
2023/04/03 09:24:56;;;;;;;5.50;4.80;;;;;;;;;;752327;185;655576;-78
2023/04/03 09:27:21;;;;;;;7.90;5.10;;;;;;;;;;752552;185;786515;-79
2023/04/03 09:29:47;;;;;;;4.20;2.20;;;;;;;;;;766832;184;629788;-78
2023/04/03 09:32:19;;;;;;;5.97;4.03;;;;;;;;;;758984;182;670128;-80
2023/04/03 09:34:45;;;;;;;13.63;4.07;;;;;;;;;;764922;182;690535;-77
2023/04/03 09:37:11;;;;;;;8.87;4.60;;;;;;;;;;763947;183;619259;-77
2023/04/03 09:39:42;;;;;;;6.57;5.80;;;;;;;;;;758981;182;654026;-78
2023/04/03 09:42:24;;;;;;;8.00;4.80;;;;;;;;;;763286;181;627643;-79
2023/04/03 09:44:53;;;;;;;5.10;3.30;;;;;;;;;;761507;184;654761;-78
2023/04/03 09:47:19;;;;;;;6.40;4.20;;;;;;;;;;761426;181;632199;-78
2023/04/03 09:49:45;;;;;;;5.50;3.37;;;;;;;;;;755720;181;649037;-81
2023/04/03 09:52:17;;;;;;;6.50;2.73;;;;;;;;;;760043;185;748280;-77
2023/04/03 09:54:42;;;;;;;6.23;4.23;;;;;;;;;;756460;185;675680;-77
2023/04/03 09:57:09;;;;;;;10.33;5.77;;;;;;;;;;756504;185;663564;-77
2023/04/03 09:59:35;;;;;;;37.57;19.37;;;;;;;;;;760133;182;630870;-79
2023/04/03 10:02:03;;;;;;;7.03;4.00;;;;;;;;;;760537;184;620041;-77
2023/04/03 10:04:43;;;;;;;5.73;2.70;;;;;;;;;;755812;184;630971;-79
2023/04/03 10:07:15;;;;;;;6.30;4.50;;;;;;;;;;759160;182;681341;-77
2023/04/03 10:09:43;;;;;;;6.00;3.87;;;;;;;;;;764098;182;633043;-78
2023/04/03 10:12:11;;;;;;;4.17;2.57;;;;;;;;;;758896;184;641144;-79
2023/04/03 10:14:35;;;;;;;7.63;3.10;;;;;;;;;;753358;183;710076;-78
2023/04/03 10:17:05;;;;;;;5.07;2.93;;;;;;;;;;748262;188;648891;-79
2023/04/03 10:19:33;;;;;;;5.87;3.10;;;;;;;;;;754767;184;623858;-79
2023/04/03 10:21:59;;;;;;;3.40;2.10;;;;;;;;;;753879;184;637785;-79
2023/04/03 10:24:25;;;;;;;5.20;3.70;;;;;;;;;;750749;184;636071;-78
2023/04/03 10:26:56;;;;;;;4.50;2.80;;;;;;;;;;764307;184;627751;-77
2023/04/03 10:29:24;;;;;;;3.40;2.53;;;;;;;;;;769431;183;619209;-77
2023/04/03 10:31:56;;;;;;;8.40;2.77;;;;;;;;;;761920;184;639325;-78
2023/04/03 10:34:24;;;;;;;4.77;3.27;;;;;;;;;;758003;183;634633;-78
2023/04/03 10:36:59;;;;;;;6.53;2.80;;;;;;;;;;757125;185;689331;-77
2023/04/03 10:39:44;;;;;;;3.40;1.77;;;;;;;;;;767822;182;636825;-77
2023/04/03 10:42:10;;;;;;;2.37;1.50;;;;;;;;;;760488;185;636941;-78
2023/04/03 10:44:37;;;;;;;3.53;2.40;;;;;;;;;;756020;182;633553;-78
2023/04/03 10:47:03;;;;;;;6.10;3.30;;;;;;;;;;759912;183;628770;-79
2023/04/03 10:49:39;;;;;;;15.50;5.00;;;;;;;;;;767153;181;711832;-80
2023/04/03 10:52:07;;;;;;;4.83;3.00;;;;;;;;;;753351;186;631704;-79
2023/04/03 10:54:35;;;;;;;5.80;2.43;;;;;;;;;;761277;184;618568;-77
2023/04/03 10:57:01;;;;;;;9.53;3.10;;;;;;;;;;774024;180;639994;-80
2023/04/03 10:59:42;;;;;;;4.33;1.93;;;;;;;;;;752760;185;643202;-79
2023/04/03 11:02:18;;;;;;;6.17;2.83;;;;;;;;;;753291;185;629295;-80
2023/04/03 11:04:43;;;;;;;3.20;2.33;;;;;;;;;;754352;184;642917;-79
2023/04/03 11:07:08;;;;;;;3.90;2.63;;;;;;;;;;755238;186;643295;-79
2023/04/03 11:09:37;;;;;;;4.43;3.13;;;;;;;;;;755633;184;628782;-79
2023/04/03 11:12:16;;;;;;;9.23;4.93;;;;;;;;;;756081;184;630799;-79
2023/04/03 11:14:42;;;;;;;2.70;1.70;;;;;;;;;;755812;183;629684;-77
2023/04/03 11:17:12;;;;;;;7.47;2.63;;;;;;;;;;763989;183;619961;-78
2023/04/03 11:19:43;;;;;;;3.10;2.00;;;;;;;;;;761890;183;688391;-78
2023/04/03 11:22:09;;;;;;;2.80;1.83;;;;;;;;;;762658;184;636554;-77
2023/04/03 11:24:35;;;;;;;3.83;2.17;;;;;;;;;;758843;184;655266;-80
2023/04/03 11:27:03;;;;;;;5.10;1.70;;;;;;;;;;758694;183;634570;-79
2023/04/03 11:29:28;;;;;;;3.47;2.00;;;;;;;;;;751155;183;653289;-80
2023/04/03 11:32:14;;;;;;;6.07;3.07;;;;;;;;;;767733;181;634693;-79
2023/04/03 11:34:41;;;;;;;7.53;2.43;;;;;;;;;;763366;181;619869;-79
2023/04/03 11:37:07;;;;;;;4.43;2.00;;;;;;;;;;772623;181;623858;-80
2023/04/03 11:39:33;;;;;;;6.17;2.80;;;;;;;;;;769126;180;622015;-79
2023/04/03 11:42:04;;;;;;;5.43;1.97;;;;;;;;;;761156;184;628860;-78
2023/04/03 11:44:34;;;;;;;5.00;2.03;;;;;;;;;;763923;180;631244;-79
2023/04/03 11:47:00;;;;;;;2.73;1.43;;;;;;;;;;767189;182;635109;-78
2023/04/03 11:49:31;;;;;;;2.43;1.70;;;;;;;;;;756125;182;638579;-79
2023/04/03 11:51:57;;;;;;;4.83;2.10;;;;;;;;;;762506;183;646033;-80
2023/04/03 11:54:29;;;;;;;3.87;1.60;;;;;;;;;;763672;182;620269;-80
2023/04/03 11:56:55;;;;;;;5.13;2.03;;;;;;;;;;769094;182;627439;-78
2023/04/03 11:59:21;;;;;;;4.10;2.13;;;;;;;;;;766172;179;832521;-79
2023/04/03 12:01:48;;;;;;;3.07;1.53;;;;;;;;;;754567;184;629828;-79
2023/04/03 12:04:15;;;;;;;7.23;3.07;;;;;;;;;;748270;185;630364;-79
2023/04/03 12:06:43;;;;;;;4.93;2.70;;;;;;;;;;765092;182;658059;-81
2023/04/03 12:09:25;;;;;;;4.60;2.73;;;;;;;;;;762647;182;908908;-80
2023/04/03 12:11:51;;;;;;;4.22;2.72;;;;;;;;;;756011;182;897817;-78
2023/04/03 12:14:17;;;;;;;2.77;1.87;;;;;;;;;;756592;182;629558;-79
2023/04/03 12:16:43;;;;;;;6.00;2.40;;;;;;;;;;764233;183;638944;-79
2023/04/03 12:19:29;;;;;;;5.07;3.53;;;;;;;;;;753282;183;644668;-78
2023/04/03 12:22:10;;;;;;;4.93;2.63;;;;;;;;;;759608;184;648733;-80
2023/04/03 12:24:36;;;;;;;5.87;2.57;;;;;;;;;;765107;182;622705;-80
2023/04/03 12:27:03;;;;;;;4.80;2.57;;;;;;;;;;766901;183;635071;-79
2023/04/03 12:29:35;;;;;;;3.90;2.07;;;;;;;;;;750937;182;833121;-78
2023/04/03 12:32:07;;;;;;;5.80;2.63;;;;;;;;;;769704;182;624421;-80
2023/04/03 12:34:35;;;;;;;7.13;2.90;;;;;;;;;;759161;182;1637142;-79
2023/04/03 12:37:04;;;;;;;2.77;1.80;;;;;;;;;;757156;183;1983954;-80
2023/04/03 12:39:35;;;;;;;4.17;1.97;;;;;;;;;;751237;182;1537122;-80
2023/04/03 12:42:03;;;;;;;4.20;2.43;;;;;;;;;;762892;182;730601;-79
2023/04/03 12:44:31;;;;;;;4.33;2.40;;;;;;;;;;756436;182;681455;-80
2023/04/03 12:46:57;;;;;;;5.03;2.47;;;;;;;;;;734250;182;3444049;-79
2023/04/03 12:49:30;;;;;;;4.57;2.70;;;;;;;;;;761050;183;661028;-79
2023/04/03 12:51:56;;;;;;;5.27;3.40;;;;;;;;;;757037;182;640111;-81
2023/04/03 12:54:22;;;;;;;5.83;3.10;;;;;;;;;;758410;181;710157;-79
2023/04/03 12:56:48;;;;;;;7.27;3.57;;;;;;;;;;760755;181;634736;-80
2023/04/03 12:59:20;;;;;;;3.57;2.80;;;;;;;;;;765290;181;626191;-80
2023/04/03 13:01:54;;;;;;;5.47;4.10;;;;;;;;;;769057;182;617805;-79
2023/04/03 13:04:20;;;;;;;10.10;7.10;;;;;;;;;;766794;180;633755;-80
2023/04/03 13:06:45;;;;;;;3.13;2.13;;;;;;;;;;756010;181;642167;-80
2023/04/03 13:09:18;;;;;;;5.00;3.33;;;;;;;;;;750589;182;634828;-79
2023/04/03 13:11:44;;;;;;;6.27;4.20;;;;;;;;;;764932;182;640265;-80
2023/04/03 13:14:16;;;;;;;6.33;2.87;;;;;;;;;;761600;182;630608;-79
2023/04/03 13:16:44;;;;;;;4.00;2.10;;;;;;;;;;742716;186;742069;-78
2023/04/03 13:19:08;;;;;;;7.07;2.87;;;;;;;;;;758288;182;670469;-79
2023/04/03 13:21:34;;;;;;;7.10;2.80;;;;;;;;;;759489;185;643424;-81
2023/04/03 13:24:00;;;;;;;4.43;1.87;;;;;;;;;;760140;183;629216;-78
2023/04/03 13:26:26;;;;;;;7.10;3.10;;;;;;;;;;763737;183;629020;-80
2023/04/03 13:28:52;;;;;;;4.83;2.80;;;;;;;;;;768077;183;626521;-81
2023/04/03 13:31:20;;;;;;;6.50;2.80;;;;;;;;;;763886;181;636564;-81
2023/04/03 13:33:51;;;;;;;5.33;2.80;;;;;;;;;;761880;183;684574;-77
2023/04/03 13:36:18;;;;;;;11.43;6.07;;;;;;;;;;762387;181;629255;-80
2023/04/03 13:38:43;;;;;;;7.00;4.90;;;;;;;;;;759222;182;636939;-79
2023/04/03 13:41:15;;;;;;;4.47;2.80;;;;;;;;;;751208;182;627918;-79
2023/04/03 13:43:41;;;;;;;3.73;2.63;;;;;;;;;;767492;181;632998;-79
2023/04/03 13:46:25;;;;;;;6.20;2.30;;;;;;;;;;758772;184;641953;-79
2023/04/03 13:48:51;;;;;;;2.70;1.63;;;;;;;;;;761968;182;655962;-79
2023/04/03 13:51:17;;;;;;;7.63;2.87;;;;;;;;;;759562;184;627155;-80
2023/04/03 13:53:45;;;;;;;14.73;2.90;;;;;;;;;;757963;183;626066;-81
2023/04/03 13:56:17;;;;;;;5.33;2.80;;;;;;;;;;757946;182;617029;-80
2023/04/03 13:58:43;;;;;;;9.60;5.27;;;;;;;;;;752323;184;636087;-79
2023/04/03 14:01:09;;;;;;;4.90;2.53;;;;;;;;;;770817;181;623780;-79
2023/04/03 14:03:37;;;;;;;4.70;2.43;;;;;;;;;;755527;183;633833;-78
2023/04/03 14:06:04;;;;;;;4.73;2.80;;;;;;;;;;751563;182;632908;-77
2023/04/03 14:08:30;;;;;;;5.50;2.67;;;;;;;;;;762908;182;623265;-78
2023/04/03 14:10:56;;;;;;;5.93;3.30;;;;;;;;;;766299;182;679510;-80
2023/04/03 14:13:21;;;;;;;4.60;2.30;;;;;;;;;;765397;182;623723;-80
2023/04/03 14:15:48;;;;;;;3.97;2.10;;;;;;;;;;767177;180;639011;-78
2023/04/03 14:18:13;;;;;;;3.90;2.57;;;;;;;;;;762754;181;635628;-78
2023/04/03 14:20:39;;;;;;;3.57;2.50;;;;;;;;;;761899;181;630281;-78
2023/04/03 14:23:06;;;;;;;4.40;3.10;;;;;;;;;;763219;182;648389;-79
2023/04/03 14:25:31;;;;;;;6.83;2.90;;;;;;;;;;761425;184;659179;-79